sensor_id;sensor_type;location;lat;lon;timestamp;temperature;humidity
31733;DHT22;18312;51.486;7.144;2022-08-25T00:00:25;21.40;99.90
31733;DHT22;18312;51.486;7.144;2022-08-25T00:02:56;21.30;99.90
31733;DHT22;18312;51.486;7.144;2022-08-25T00:05:27;21.30;99.90
31733;DHT22;18312;51.486;7.144;2022-08-25T00:07:54;21.30;99.90
31733;DHT22;18312;51.486;7.144;2022-08-25T00:10:21;21.30;99.90
31733;DHT22;18312;51.486;7.144;2022-08-25T00:12:50;21.30;99.90
31733;DHT22;18312;51.486;7.144;2022-08-25T00:15:17;21.20;99.90
31733;DHT22;18312;51.486;7.144;2022-08-25T00:17:45;21.20;99.90
31733;DHT22;18312;51.486;7.144;2022-08-25T00:20:12;21.10;99.90
31733;DHT22;18312;51.486;7.144;2022-08-25T00:22:39;21.20;99.90
31733;DHT22;18312;51.486;7.144;2022-08-25T00:25:06;21.10;99.90
31733;DHT22;18312;51.486;7.144;2022-08-25T00:27:34;21.10;99.90
31733;DHT22;18312;51.486;7.144;2022-08-25T00:30:04;21.00;99.90
31733;DHT22;18312;51.486;7.144;2022-08-25T00:32:31;21.00;99.90
31733;DHT22;18312;51.486;7.144;2022-08-25T00:34:58;21.00;99.90
31733;DHT22;18312;51.486;7.144;2022-08-25T00:37:25;20.90;99.90
31733;DHT22;18312;51.486;7.144;2022-08-25T00:39:52;21.00;99.90
31733;DHT22;18312;51.486;7.144;2022-08-25T00:42:21;21.00;99.90
31733;DHT22;18312;51.486;7.144;2022-08-25T00:44:48;20.90;99.90
31733;DHT22;18312;51.486;7.144;2022-08-25T00:47:17;21.00;99.90
31733;DHT22;18312;51.486;7.144;2022-08-25T00:49:46;21.00;99.90
31733;DHT22;18312;51.486;7.144;2022-08-25T00:52:17;21.10;99.90
31733;DHT22;18312;51.486;7.144;2022-08-25T00:54:46;21.10;99.90
31733;DHT22;18312;51.486;7.144;2022-08-25T00:57:18;21.10;99.90
31733;DHT22;18312;51.486;7.144;2022-08-25T00:59:46;21.10;99.90
31733;DHT22;18312;51.486;7.144;2022-08-25T01:02:13;21.00;99.90
31733;DHT22;18312;51.486;7.144;2022-08-25T01:04:43;20.90;99.90
31733;DHT22;18312;51.486;7.144;2022-08-25T01:07:10;20.80;99.90
31733;DHT22;18312;51.486;7.144;2022-08-25T01:09:38;20.80;99.90
31733;DHT22;18312;51.486;7.144;2022-08-25T01:12:05;20.60;99.90
31733;DHT22;18312;51.486;7.144;2022-08-25T01:14:33;20.60;99.90
31733;DHT22;18312;51.486;7.144;2022-08-25T01:17:00;20.50;99.90
31733;DHT22;18312;51.486;7.144;2022-08-25T01:19:28;20.30;99.90
31733;DHT22;18312;51.486;7.144;2022-08-25T01:21:58;20.20;99.90
31733;DHT22;18312;51.486;7.144;2022-08-25T01:24:30;20.20;99.90
31733;DHT22;18312;51.486;7.144;2022-08-25T01:26:58;20.10;99.90
31733;DHT22;18312;51.486;7.144;2022-08-25T01:29:26;20.10;99.90
31733;DHT22;18312;51.486;7.144;2022-08-25T01:31:55;20.10;99.90
31733;DHT22;18312;51.486;7.144;2022-08-25T01:34:24;20.00;99.90
31733;DHT22;18312;51.486;7.144;2022-08-25T01:36:52;20.00;99.90
31733;DHT22;18312;51.486;7.144;2022-08-25T01:39:20;19.90;99.90
31733;DHT22;18312;51.486;7.144;2022-08-25T01:42:12;19.80;99.90
31733;DHT22;18312;51.486;7.144;2022-08-25T01:44:42;19.70;99.90
31733;DHT22;18312;51.486;7.144;2022-08-25T01:47:10;19.60;99.90
31733;DHT22;18312;51.486;7.144;2022-08-25T01:49:37;19.60;99.90
31733;DHT22;18312;51.486;7.144;2022-08-25T01:52:06;19.60;99.90
31733;DHT22;18312;51.486;7.144;2022-08-25T01:54:37;19.60;99.90
31733;DHT22;18312;51.486;7.144;2022-08-25T01:57:04;19.70;99.90
31733;DHT22;18312;51.486;7.144;2022-08-25T01:59:31;19.60;99.90
31733;DHT22;18312;51.486;7.144;2022-08-25T02:01:58;19.60;99.90
31733;DHT22;18312;51.486;7.144;2022-08-25T02:04:24;19.50;99.90
31733;DHT22;18312;51.486;7.144;2022-08-25T02:06:53;19.50;99.90
31733;DHT22;18312;51.486;7.144;2022-08-25T02:09:20;19.50;99.90
31733;DHT22;18312;51.486;7.144;2022-08-25T02:11:49;19.50;99.90
31733;DHT22;18312;51.486;7.144;2022-08-25T02:14:17;19.50;99.90
31733;DHT22;18312;51.486;7.144;2022-08-25T02:16:46;19.40;99.90
31733;DHT22;18312;51.486;7.144;2022-08-25T02:19:14;19.40;99.90
31733;DHT22;18312;51.486;7.144;2022-08-25T02:21:41;19.20;99.90
31733;DHT22;18312;51.486;7.144;2022-08-25T02:24:09;19.00;99.90
31733;DHT22;18312;51.486;7.144;2022-08-25T02:26:36;18.90;99.90
31733;DHT22;18312;51.486;7.144;2022-08-25T02:29:06;18.80;99.90
31733;DHT22;18312;51.486;7.144;2022-08-25T02:31:33;18.70;99.90
31733;DHT22;18312;51.486;7.144;2022-08-25T02:34:00;18.70;99.90
31733;DHT22;18312;51.486;7.144;2022-08-25T02:36:27;18.60;99.90
31733;DHT22;18312;51.486;7.144;2022-08-25T02:38:55;18.60;99.90
31733;DHT22;18312;51.486;7.144;2022-08-25T02:41:23;18.60;99.90
31733;DHT22;18312;51.486;7.144;2022-08-25T02:43:50;18.50;99.90
31733;DHT22;18312;51.486;7.144;2022-08-25T02:46:20;18.40;99.90
31733;DHT22;18312;51.486;7.144;2022-08-25T02:48:47;18.40;99.90
31733;DHT22;18312;51.486;7.144;2022-08-25T02:51:18;18.40;99.90
31733;DHT22;18312;51.486;7.144;2022-08-25T02:53:44;18.50;99.90
31733;DHT22;18312;51.486;7.144;2022-08-25T02:56:14;18.50;99.90
31733;DHT22;18312;51.486;7.144;2022-08-25T02:58:41;18.50;99.90
31733;DHT22;18312;51.486;7.144;2022-08-25T03:01:09;18.50;99.90
31733;DHT22;18312;51.486;7.144;2022-08-25T03:03:38;18.50;99.90
31733;DHT22;18312;51.486;7.144;2022-08-25T03:06:06;18.60;99.90
31733;DHT22;18312;51.486;7.144;2022-08-25T03:08:34;18.50;99.90
31733;DHT22;18312;51.486;7.144;2022-08-25T03:11:01;18.50;99.90
31733;DHT22;18312;51.486;7.144;2022-08-25T03:13:28;18.40;99.90
31733;DHT22;18312;51.486;7.144;2022-08-25T03:15:56;18.30;99.90
31733;DHT22;18312;51.486;7.144;2022-08-25T03:18:23;18.40;99.90
31733;DHT22;18312;51.486;7.144;2022-08-25T03:20:51;18.40;99.90
31733;DHT22;18312;51.486;7.144;2022-08-25T03:23:19;18.40;99.90
31733;DHT22;18312;51.486;7.144;2022-08-25T03:25:45;18.30;99.90
31733;DHT22;18312;51.486;7.144;2022-08-25T03:28:30;18.20;99.90
31733;DHT22;18312;51.486;7.144;2022-08-25T03:30:58;18.20;99.90
31733;DHT22;18312;51.486;7.144;2022-08-25T03:33:25;18.20;99.90
31733;DHT22;18312;51.486;7.144;2022-08-25T03:35:54;18.20;99.90
31733;DHT22;18312;51.486;7.144;2022-08-25T03:38:20;18.20;99.90
31733;DHT22;18312;51.486;7.144;2022-08-25T03:40:48;18.10;99.90
31733;DHT22;18312;51.486;7.144;2022-08-25T03:43:16;17.90;99.90
31733;DHT22;18312;51.486;7.144;2022-08-25T03:45:43;17.90;99.90
31733;DHT22;18312;51.486;7.144;2022-08-25T03:48:12;17.80;99.90
31733;DHT22;18312;51.486;7.144;2022-08-25T03:50:43;17.70;99.90
31733;DHT22;18312;51.486;7.144;2022-08-25T03:53:12;17.70;99.90
31733;DHT22;18312;51.486;7.144;2022-08-25T03:55:39;17.70;99.90
31733;DHT22;18312;51.486;7.144;2022-08-25T03:58:06;17.80;99.90
31733;DHT22;18312;51.486;7.144;2022-08-25T04:00:33;17.70;99.90
31733;DHT22;18312;51.486;7.144;2022-08-25T04:03:00;17.60;99.90
31733;DHT22;18312;51.486;7.144;2022-08-25T04:05:26;17.70;99.90
31733;DHT22;18312;51.486;7.144;2022-08-25T04:07:53;17.70;99.90
31733;DHT22;18312;51.486;7.144;2022-08-25T04:10:21;17.70;99.90
31733;DHT22;18312;51.486;7.144;2022-08-25T04:12:48;17.60;99.90
31733;DHT22;18312;51.486;7.144;2022-08-25T04:15:15;17.50;99.90
31733;DHT22;18312;51.486;7.144;2022-08-25T04:17:42;17.40;99.90
31733;DHT22;18312;51.486;7.144;2022-08-25T04:20:10;17.40;99.90
31733;DHT22;18312;51.486;7.144;2022-08-25T04:22:37;17.40;99.90
31733;DHT22;18312;51.486;7.144;2022-08-25T04:25:05;17.50;99.90
31733;DHT22;18312;51.486;7.144;2022-08-25T04:27:35;17.50;99.90
31733;DHT22;18312;51.486;7.144;2022-08-25T04:30:03;17.50;99.90
31733;DHT22;18312;51.486;7.144;2022-08-25T04:32:30;17.50;99.90
31733;DHT22;18312;51.486;7.144;2022-08-25T04:34:57;17.60;99.90
31733;DHT22;18312;51.486;7.144;2022-08-25T04:37:23;17.60;99.90
31733;DHT22;18312;51.486;7.144;2022-08-25T04:39:50;17.60;99.90
31733;DHT22;18312;51.486;7.144;2022-08-25T04:42:17;17.50;99.90
31733;DHT22;18312;51.486;7.144;2022-08-25T04:44:45;17.50;99.90
31733;DHT22;18312;51.486;7.144;2022-08-25T04:47:12;17.40;99.90
31733;DHT22;18312;51.486;7.144;2022-08-25T04:49:39;17.40;99.90
31733;DHT22;18312;51.486;7.144;2022-08-25T04:52:05;17.30;99.90
31733;DHT22;18312;51.486;7.144;2022-08-25T04:54:32;17.30;99.90
31733;DHT22;18312;51.486;7.144;2022-08-25T04:57:00;17.30;99.90
31733;DHT22;18312;51.486;7.144;2022-08-25T04:59:26;17.30;99.90
31733;DHT22;18312;51.486;7.144;2022-08-25T05:01:55;17.40;99.90
31733;DHT22;18312;51.486;7.144;2022-08-25T05:04:26;17.50;99.90
31733;DHT22;18312;51.486;7.144;2022-08-25T05:06:52;17.60;99.90
31733;DHT22;18312;51.486;7.144;2022-08-25T05:09:20;17.70;99.90
31733;DHT22;18312;51.486;7.144;2022-08-25T05:11:47;17.80;99.90
31733;DHT22;18312;51.486;7.144;2022-08-25T05:14:14;18.00;99.90
31733;DHT22;18312;51.486;7.144;2022-08-25T05:16:46;17.90;99.90
31733;DHT22;18312;51.486;7.144;2022-08-25T05:19:14;18.00;99.90
31733;DHT22;18312;51.486;7.144;2022-08-25T05:21:41;18.00;99.90
31733;DHT22;18312;51.486;7.144;2022-08-25T05:24:08;18.30;99.90
31733;DHT22;18312;51.486;7.144;2022-08-25T05:26:35;18.40;99.90
31733;DHT22;18312;51.486;7.144;2022-08-25T05:29:05;18.60;99.90
31733;DHT22;18312;51.486;7.144;2022-08-25T05:31:33;18.70;99.90
31733;DHT22;18312;51.486;7.144;2022-08-25T05:34:04;18.80;99.90
31733;DHT22;18312;51.486;7.144;2022-08-25T05:36:33;18.90;99.90
31733;DHT22;18312;51.486;7.144;2022-08-25T05:39:00;19.00;99.90
31733;DHT22;18312;51.486;7.144;2022-08-25T05:41:29;19.10;99.90
31733;DHT22;18312;51.486;7.144;2022-08-25T05:43:58;19.00;99.90
31733;DHT22;18312;51.486;7.144;2022-08-25T05:46:25;18.90;99.90
31733;DHT22;18312;51.486;7.144;2022-08-25T05:48:52;18.90;99.90
31733;DHT22;18312;51.486;7.144;2022-08-25T05:51:19;19.00;99.90
31733;DHT22;18312;51.486;7.144;2022-08-25T05:53:49;19.10;99.90
31733;DHT22;18312;51.486;7.144;2022-08-25T05:56:16;19.30;99.90
31733;DHT22;18312;51.486;7.144;2022-08-25T05:58:45;19.50;99.90
31733;DHT22;18312;51.486;7.144;2022-08-25T06:01:20;19.50;99.90
31733;DHT22;18312;51.486;7.144;2022-08-25T06:04:05;19.50;99.90
31733;DHT22;18312;51.486;7.144;2022-08-25T06:06:32;19.60;99.90
31733;DHT22;18312;51.486;7.144;2022-08-25T06:09:01;19.60;99.90
31733;DHT22;18312;51.486;7.144;2022-08-25T06:11:29;19.70;99.90
31733;DHT22;18312;51.486;7.144;2022-08-25T06:13:56;19.80;99.90
31733;DHT22;18312;51.486;7.144;2022-08-25T06:16:22;19.90;99.90
31733;DHT22;18312;51.486;7.144;2022-08-25T06:18:51;20.00;99.90
31733;DHT22;18312;51.486;7.144;2022-08-25T06:21:19;20.10;99.90
31733;DHT22;18312;51.486;7.144;2022-08-25T06:23:46;20.30;99.90
31733;DHT22;18312;51.486;7.144;2022-08-25T06:26:15;21.60;99.90
31733;DHT22;18312;51.486;7.144;2022-08-25T06:28:42;21.90;99.90
31733;DHT22;18312;51.486;7.144;2022-08-25T06:31:09;21.90;99.90
31733;DHT22;18312;51.486;7.144;2022-08-25T06:33:36;23.30;99.90
31733;DHT22;18312;51.486;7.144;2022-08-25T06:36:03;24.40;96.60
31733;DHT22;18312;51.486;7.144;2022-08-25T06:38:30;23.90;99.00
31733;DHT22;18312;51.486;7.144;2022-08-25T06:41:00;23.10;99.90
31733;DHT22;18312;51.486;7.144;2022-08-25T06:43:29;22.40;99.90
31733;DHT22;18312;51.486;7.144;2022-08-25T06:45:55;22.20;99.90
31733;DHT22;18312;51.486;7.144;2022-08-25T06:48:22;22.10;99.90
31733;DHT22;18312;51.486;7.144;2022-08-25T06:50:49;22.10;99.90
31733;DHT22;18312;51.486;7.144;2022-08-25T06:53:16;22.50;99.90
31733;DHT22;18312;51.486;7.144;2022-08-25T06:55:44;23.00;99.90
31733;DHT22;18312;51.486;7.144;2022-08-25T06:58:11;23.70;99.90
31733;DHT22;18312;51.486;7.144;2022-08-25T07:00:39;23.60;99.90
31733;DHT22;18312;51.486;7.144;2022-08-25T07:03:06;23.50;99.90
31733;DHT22;18312;51.486;7.144;2022-08-25T07:05:33;23.20;99.90
31733;DHT22;18312;51.486;7.144;2022-08-25T07:07:59;23.10;99.90
31733;DHT22;18312;51.486;7.144;2022-08-25T07:10:26;23.30;99.90
31733;DHT22;18312;51.486;7.144;2022-08-25T07:12:53;24.50;99.50
31733;DHT22;18312;51.486;7.144;2022-08-25T07:15:20;25.80;94.40
31733;DHT22;18312;51.486;7.144;2022-08-25T07:17:48;27.40;89.20
31733;DHT22;18312;51.486;7.144;2022-08-25T07:20:16;27.80;82.20
31733;DHT22;18312;51.486;7.144;2022-08-25T07:22:43;26.30;89.00
31733;DHT22;18312;51.486;7.144;2022-08-25T07:25:10;25.20;92.50
31733;DHT22;18312;51.486;7.144;2022-08-25T07:27:38;24.60;96.60
31733;DHT22;18312;51.486;7.144;2022-08-25T07:30:06;24.30;98.20
31733;DHT22;18312;51.486;7.144;2022-08-25T07:32:33;24.20;98.20
31733;DHT22;18312;51.486;7.144;2022-08-25T07:35:02;24.20;98.80
31733;DHT22;18312;51.486;7.144;2022-08-25T07:37:41;24.20;99.10
31733;DHT22;18312;51.486;7.144;2022-08-25T07:40:11;24.30;98.70
31733;DHT22;18312;51.486;7.144;2022-08-25T07:42:38;24.30;98.90
31733;DHT22;18312;51.486;7.144;2022-08-25T07:45:06;24.40;99.00
31733;DHT22;18312;51.486;7.144;2022-08-25T07:47:34;24.50;98.70
31733;DHT22;18312;51.486;7.144;2022-08-25T07:50:03;24.50;98.60
31733;DHT22;18312;51.486;7.144;2022-08-25T07:52:30;24.50;98.90
31733;DHT22;18312;51.486;7.144;2022-08-25T07:54:57;24.70;98.70
31733;DHT22;18312;51.486;7.144;2022-08-25T07:57:24;24.70;98.50
31733;DHT22;18312;51.486;7.144;2022-08-25T07:59:52;24.80;98.10
31733;DHT22;18312;51.486;7.144;2022-08-25T08:02:20;24.90;97.50
31733;DHT22;18312;51.486;7.144;2022-08-25T08:04:48;25.00;97.50
31733;DHT22;18312;51.486;7.144;2022-08-25T08:07:18;25.00;97.90
31733;DHT22;18312;51.486;7.144;2022-08-25T08:09:45;25.10;97.40
31733;DHT22;18312;51.486;7.144;2022-08-25T08:12:12;25.20;96.60
31733;DHT22;18312;51.486;7.144;2022-08-25T08:14:39;25.20;96.50
31733;DHT22;18312;51.486;7.144;2022-08-25T08:17:07;25.30;97.10
31733;DHT22;18312;51.486;7.144;2022-08-25T08:19:34;25.40;96.10
31733;DHT22;18312;51.486;7.144;2022-08-25T08:22:02;25.40;96.10
31733;DHT22;18312;51.486;7.144;2022-08-25T08:24:31;25.50;96.30
31733;DHT22;18312;51.486;7.144;2022-08-25T08:27:04;25.60;95.70
31733;DHT22;18312;51.486;7.144;2022-08-25T08:29:30;25.70;95.60
31733;DHT22;18312;51.486;7.144;2022-08-25T08:31:58;25.70;95.60
31733;DHT22;18312;51.486;7.144;2022-08-25T08:34:25;25.80;95.90
31733;DHT22;18312;51.486;7.144;2022-08-25T08:36:52;25.90;95.20
31733;DHT22;18312;51.486;7.144;2022-08-25T08:39:19;25.90;94.50
31733;DHT22;18312;51.486;7.144;2022-08-25T08:41:56;26.00;93.80
31733;DHT22;18312;51.486;7.144;2022-08-25T08:44:53;26.20;94.30
31733;DHT22;18312;51.486;7.144;2022-08-25T08:47:30;26.30;93.20
31733;DHT22;18312;51.486;7.144;2022-08-25T08:50:03;26.20;93.40
31733;DHT22;18312;51.486;7.144;2022-08-25T08:52:39;26.30;92.80
31733;DHT22;18312;51.486;7.144;2022-08-25T08:55:22;26.40;93.00
31733;DHT22;18312;51.486;7.144;2022-08-25T08:57:52;26.50;92.60
31733;DHT22;18312;51.486;7.144;2022-08-25T09:00:21;26.50;92.00
31733;DHT22;18312;51.486;7.144;2022-08-25T09:02:53;26.50;92.00
31733;DHT22;18312;51.486;7.144;2022-08-25T09:05:24;26.60;91.80
31733;DHT22;18312;51.486;7.144;2022-08-25T09:07:54;26.70;92.30
31733;DHT22;18312;51.486;7.144;2022-08-25T09:10:23;26.80;92.40
31733;DHT22;18312;51.486;7.144;2022-08-25T09:13:02;26.90;91.40
31733;DHT22;18312;51.486;7.144;2022-08-25T09:15:37;27.00;90.40
31733;DHT22;18312;51.486;7.144;2022-08-25T09:18:29;27.20;90.60
31733;DHT22;18312;51.486;7.144;2022-08-25T09:21:06;27.40;88.40
31733;DHT22;18312;51.486;7.144;2022-08-25T09:23:45;27.50;88.20
31733;DHT22;18312;51.486;7.144;2022-08-25T09:26:28;27.50;87.40
31733;DHT22;18312;51.486;7.144;2022-08-25T09:29:02;27.50;88.20
31733;DHT22;18312;51.486;7.144;2022-08-25T09:31:32;27.50;87.40
31733;DHT22;18312;51.486;7.144;2022-08-25T09:34:01;28.10;87.70
31733;DHT22;18312;51.486;7.144;2022-08-25T09:36:31;28.70;83.80
31733;DHT22;18312;51.486;7.144;2022-08-25T09:38:59;28.90;80.00
31733;DHT22;18312;51.486;7.144;2022-08-25T09:41:42;29.80;80.10
31733;DHT22;18312;51.486;7.144;2022-08-25T09:44:20;31.00;74.60
31733;DHT22;18312;51.486;7.144;2022-08-25T09:46:59;30.20;75.00
31733;DHT22;18312;51.486;7.144;2022-08-25T09:49:38;30.50;74.60
31733;DHT22;18312;51.486;7.144;2022-08-25T10:02:22;33.00;60.00
31733;DHT22;18312;51.486;7.144;2022-08-25T10:04:50;31.50;63.90
31733;DHT22;18312;51.486;7.144;2022-08-25T10:07:22;31.20;64.80
31733;DHT22;18312;51.486;7.144;2022-08-25T10:09:51;30.30;63.90
31733;DHT22;18312;51.486;7.144;2022-08-25T10:12:19;30.20;64.40
31733;DHT22;18312;51.486;7.144;2022-08-25T10:14:49;30.30;64.60
31733;DHT22;18312;51.486;7.144;2022-08-25T10:17:18;30.10;64.20
31733;DHT22;18312;51.486;7.144;2022-08-25T10:20:16;30.10;65.10
31733;DHT22;18312;51.486;7.144;2022-08-25T10:22:45;30.10;64.60
31733;DHT22;18312;51.486;7.144;2022-08-25T10:25:15;30.20;64.30
31733;DHT22;18312;51.486;7.144;2022-08-25T10:27:50;30.20;64.70
31733;DHT22;18312;51.486;7.144;2022-08-25T10:30:29;30.00;62.70
31733;DHT22;18312;51.486;7.144;2022-08-25T10:33:08;30.20;62.50
31733;DHT22;18312;51.486;7.144;2022-08-25T10:35:49;30.00;61.90
31733;DHT22;18312;51.486;7.144;2022-08-25T10:38:29;30.40;62.20
31733;DHT22;18312;51.486;7.144;2022-08-25T10:41:02;30.10;61.50
31733;DHT22;18312;51.486;7.144;2022-08-25T10:43:35;30.20;61.50
31733;DHT22;18312;51.486;7.144;2022-08-25T10:46:12;30.20;60.90
31733;DHT22;18312;51.486;7.144;2022-08-25T10:48:50;30.50;61.20
31733;DHT22;18312;51.486;7.144;2022-08-25T10:51:30;30.80;59.90
31733;DHT22;18312;51.486;7.144;2022-08-25T10:54:03;30.70;60.20
31733;DHT22;18312;51.486;7.144;2022-08-25T10:56:33;30.90;60.20
31733;DHT22;18312;51.486;7.144;2022-08-25T11:05:18;30.40;59.70
31733;DHT22;18312;51.486;7.144;2022-08-25T11:07:50;30.50;60.00
31733;DHT22;18312;51.486;7.144;2022-08-25T11:10:23;30.50;59.40
31733;DHT22;18312;51.486;7.144;2022-08-25T11:12:53;31.10;59.70
31733;DHT22;18312;51.486;7.144;2022-08-25T11:15:39;31.60;57.50
31733;DHT22;18312;51.486;7.144;2022-08-25T11:18:09;31.70;57.10
31733;DHT22;18312;51.486;7.144;2022-08-25T11:20:45;31.30;58.20
31733;DHT22;18312;51.486;7.144;2022-08-25T11:23:22;31.20;57.60
31733;DHT22;18312;51.486;7.144;2022-08-25T11:25:51;31.10;57.70
31733;DHT22;18312;51.486;7.144;2022-08-25T11:28:25;31.10;57.70
31733;DHT22;18312;51.486;7.144;2022-08-25T11:30:55;31.20;57.80
31733;DHT22;18312;51.486;7.144;2022-08-25T11:33:23;31.30;56.90
31733;DHT22;18312;51.486;7.144;2022-08-25T11:35:53;31.40;56.90
31733;DHT22;18312;51.486;7.144;2022-08-25T11:38:34;31.10;56.30
31733;DHT22;18312;51.486;7.144;2022-08-25T11:41:13;30.90;57.00
31733;DHT22;18312;51.486;7.144;2022-08-25T11:44:04;30.60;57.20
31733;DHT22;18312;51.486;7.144;2022-08-25T11:46:44;31.40;57.40
31733;DHT22;18312;51.486;7.144;2022-08-25T11:49:49;31.80;56.90
31733;DHT22;18312;51.486;7.144;2022-08-25T11:55:44;32.10;55.20
31733;DHT22;18312;51.486;7.144;2022-08-25T11:58:14;32.00;55.30
31733;DHT22;18312;51.486;7.144;2022-08-25T12:00:43;32.70;54.30
31733;DHT22;18312;51.486;7.144;2022-08-25T12:06:28;32.90;53.60
31733;DHT22;18312;51.486;7.144;2022-08-25T12:09:15;33.00;52.90
31733;DHT22;18312;51.486;7.144;2022-08-25T12:11:55;33.20;54.20
31733;DHT22;18312;51.486;7.144;2022-08-25T12:14:43;33.60;51.90
31733;DHT22;18312;51.486;7.144;2022-08-25T12:17:20;33.90;52.80
31733;DHT22;18312;51.486;7.144;2022-08-25T12:19:57;33.70;52.60
31733;DHT22;18312;51.486;7.144;2022-08-25T12:22:52;34.10;52.80
31733;DHT22;18312;51.486;7.144;2022-08-25T12:25:49;34.40;51.20
31733;DHT22;18312;51.486;7.144;2022-08-25T12:28:42;33.40;52.10
31733;DHT22;18312;51.486;7.144;2022-08-25T12:31:23;33.30;52.60
31733;DHT22;18312;51.486;7.144;2022-08-25T12:34:06;33.40;52.20
31733;DHT22;18312;51.486;7.144;2022-08-25T12:36:35;33.60;51.40
31733;DHT22;18312;51.486;7.144;2022-08-25T12:39:22;33.20;51.00
31733;DHT22;18312;51.486;7.144;2022-08-25T12:41:57;33.70;50.40
31733;DHT22;18312;51.486;7.144;2022-08-25T12:44:43;34.40;50.20
31733;DHT22;18312;51.486;7.144;2022-08-25T12:47:29;34.00;50.60
31733;DHT22;18312;51.486;7.144;2022-08-25T12:50:26;33.90;50.90
31733;DHT22;18312;51.486;7.144;2022-08-25T12:52:54;34.40;50.30
31733;DHT22;18312;51.486;7.144;2022-08-25T12:55:26;33.80;50.50
31733;DHT22;18312;51.486;7.144;2022-08-25T12:57:55;34.10;49.70
31733;DHT22;18312;51.486;7.144;2022-08-25T13:00:28;34.40;50.80
31733;DHT22;18312;51.486;7.144;2022-08-25T13:03:24;34.40;50.70
31733;DHT22;18312;51.486;7.144;2022-08-25T13:06:07;34.50;49.70
31733;DHT22;18312;51.486;7.144;2022-08-25T13:08:49;34.30;50.10
31733;DHT22;18312;51.486;7.144;2022-08-25T13:11:26;33.90;49.70
31733;DHT22;18312;51.486;7.144;2022-08-25T13:14:13;34.70;50.00
31733;DHT22;18312;51.486;7.144;2022-08-25T13:16:51;34.90;48.80
31733;DHT22;18312;51.486;7.144;2022-08-25T13:19:19;35.20;49.70
31733;DHT22;18312;51.486;7.144;2022-08-25T13:21:46;35.40;49.20
31733;DHT22;18312;51.486;7.144;2022-08-25T13:24:18;34.90;48.70
31733;DHT22;18312;51.486;7.144;2022-08-25T13:26:48;34.70;48.90
31733;DHT22;18312;51.486;7.144;2022-08-25T13:29:19;35.00;49.50
31733;DHT22;18312;51.486;7.144;2022-08-25T13:31:54;35.30;49.20
31733;DHT22;18312;51.486;7.144;2022-08-25T13:34:29;34.70;50.00
31733;DHT22;18312;51.486;7.144;2022-08-25T13:37:08;34.70;50.40
31733;DHT22;18312;51.486;7.144;2022-08-25T13:40:07;35.50;50.00
31733;DHT22;18312;51.486;7.144;2022-08-25T13:42:35;35.60;48.00
31733;DHT22;18312;51.486;7.144;2022-08-25T13:45:04;34.70;48.40
31733;DHT22;18312;51.486;7.144;2022-08-25T13:47:34;34.50;49.10
31733;DHT22;18312;51.486;7.144;2022-08-25T13:50:17;34.90;48.90
31733;DHT22;18312;51.486;7.144;2022-08-25T13:52:47;35.10;47.50
31733;DHT22;18312;51.486;7.144;2022-08-25T13:55:20;35.70;47.60
31733;DHT22;18312;51.486;7.144;2022-08-25T13:57:50;35.00;48.40
31733;DHT22;18312;51.486;7.144;2022-08-25T14:00:29;33.60;48.30
31733;DHT22;18312;51.486;7.144;2022-08-25T14:03:02;34.20;48.00
31733;DHT22;18312;51.486;7.144;2022-08-25T14:05:38;35.00;47.90
31733;DHT22;18312;51.486;7.144;2022-08-25T14:08:27;34.20;48.50
31733;DHT22;18312;51.486;7.144;2022-08-25T14:11:05;33.90;48.70
31733;DHT22;18312;51.486;7.144;2022-08-25T14:13:36;33.60;49.20
31733;DHT22;18312;51.486;7.144;2022-08-25T14:16:09;33.90;48.60
31733;DHT22;18312;51.486;7.144;2022-08-25T14:18:44;34.50;48.50
31733;DHT22;18312;51.486;7.144;2022-08-25T14:21:14;34.70;47.60
31733;DHT22;18312;51.486;7.144;2022-08-25T14:23:41;35.00;47.10
31733;DHT22;18312;51.486;7.144;2022-08-25T14:26:08;35.00;47.70
31733;DHT22;18312;51.486;7.144;2022-08-25T14:28:41;35.20;47.50
31733;DHT22;18312;51.486;7.144;2022-08-25T14:31:11;34.30;48.80
31733;DHT22;18312;51.486;7.144;2022-08-25T14:33:42;33.90;49.20
31733;DHT22;18312;51.486;7.144;2022-08-25T14:36:09;33.70;49.80
31733;DHT22;18312;51.486;7.144;2022-08-25T14:38:38;34.10;48.30
31733;DHT22;18312;51.486;7.144;2022-08-25T14:41:05;34.60;48.40
31733;DHT22;18312;51.486;7.144;2022-08-25T14:43:34;34.90;48.20
31733;DHT22;18312;51.486;7.144;2022-08-25T14:46:05;35.00;48.50
31733;DHT22;18312;51.486;7.144;2022-08-25T14:48:38;34.60;48.40
31733;DHT22;18312;51.486;7.144;2022-08-25T14:51:07;34.50;47.90
31733;DHT22;18312;51.486;7.144;2022-08-25T14:53:42;34.30;48.10
31733;DHT22;18312;51.486;7.144;2022-08-25T14:56:10;34.50;47.50
31733;DHT22;18312;51.486;7.144;2022-08-25T14:58:39;34.70;47.30
31733;DHT22;18312;51.486;7.144;2022-08-25T15:01:11;34.40;48.30
31733;DHT22;18312;51.486;7.144;2022-08-25T15:03:41;34.00;49.30
31733;DHT22;18312;51.486;7.144;2022-08-25T15:06:14;33.90;49.20
31733;DHT22;18312;51.486;7.144;2022-08-25T15:08:41;33.60;49.30
31733;DHT22;18312;51.486;7.144;2022-08-25T15:11:28;33.30;49.60
31733;DHT22;18312;51.486;7.144;2022-08-25T15:13:56;33.30;49.30
31733;DHT22;18312;51.486;7.144;2022-08-25T15:16:30;33.00;48.90
31733;DHT22;18312;51.486;7.144;2022-08-25T15:18:57;32.60;49.50
31733;DHT22;18312;51.486;7.144;2022-08-25T15:21:25;32.50;50.00
31733;DHT22;18312;51.486;7.144;2022-08-25T15:23:52;32.60;50.40
31733;DHT22;18312;51.486;7.144;2022-08-25T15:26:19;32.60;50.40
31733;DHT22;18312;51.486;7.144;2022-08-25T15:28:48;32.40;50.60
31733;DHT22;18312;51.486;7.144;2022-08-25T15:31:16;32.70;50.00
31733;DHT22;18312;51.486;7.144;2022-08-25T15:33:44;32.80;49.70
31733;DHT22;18312;51.486;7.144;2022-08-25T15:36:12;33.10;50.70
31733;DHT22;18312;51.486;7.144;2022-08-25T15:38:46;33.30;49.20
31733;DHT22;18312;51.486;7.144;2022-08-25T15:41:13;33.10;49.60
31733;DHT22;18312;51.486;7.144;2022-08-25T15:43:39;33.00;49.70
31733;DHT22;18312;51.486;7.144;2022-08-25T15:46:09;33.30;49.70
31733;DHT22;18312;51.486;7.144;2022-08-25T15:48:38;33.70;49.30
31733;DHT22;18312;51.486;7.144;2022-08-25T15:51:05;33.40;49.80
31733;DHT22;18312;51.486;7.144;2022-08-25T15:53:42;32.50;50.60
31733;DHT22;18312;51.486;7.144;2022-08-25T15:56:10;32.00;51.00
31733;DHT22;18312;51.486;7.144;2022-08-25T15:58:38;31.90;51.60
31733;DHT22;18312;51.486;7.144;2022-08-25T16:01:11;31.90;51.00
31733;DHT22;18312;51.486;7.144;2022-08-25T16:03:41;32.00;51.90
31733;DHT22;18312;51.486;7.144;2022-08-25T16:06:10;31.90;52.30
31733;DHT22;18312;51.486;7.144;2022-08-25T16:08:38;31.80;51.40
31733;DHT22;18312;51.486;7.144;2022-08-25T16:11:16;32.30;51.60
31733;DHT22;18312;51.486;7.144;2022-08-25T16:13:46;32.30;51.40
31733;DHT22;18312;51.486;7.144;2022-08-25T16:16:17;32.00;52.10